Time;durP1;ratioP1;P1;durP2;ratioP2;P2;SDS_P1;SDS_P2;PMS_P1;PMS_P2;Temp;Humidity;BMP_temperature;BMP_pressure;BME280_temperature;BME280_humidity;BME280_pressure;Samples;Min_cycle;Max_cycle;Signal;HPM_P1;HPM_P2
2023/02/10 00:01:24;;;;;;;52.80;28.58;;;3.90;99.90;;;-144.05;66.39;57001.75;4995657;28;20049;-78
2023/02/10 00:03:51;;;;;;;57.65;30.00;;;3.90;99.90;;;-144.05;66.56;56986.91;5013737;28;20080;-77
2023/02/10 00:06:19;;;;;;;60.75;28.45;;;3.90;99.90;;;-144.05;66.54;56967.78;5013296;28;20026;-76
2023/02/10 00:08:56;;;;;;;66.18;31.60;;;3.90;99.90;;;-144.05;66.71;57008.13;4995158;28;20048;-76
2023/02/10 00:11:56;;;;;;;54.10;28.05;;;3.90;99.90;;;-144.05;66.67;57012.38;4995560;28;20029;-77
2023/02/10 00:14:12;;;;;;;61.83;29.00;;;3.90;99.90;;;-144.05;66.52;56989.00;5012960;28;20041;-78
2023/02/10 00:16:38;;;;;;;56.70;28.88;;;3.90;99.90;;;-144.05;66.61;56976.28;5013208;28;20485;-78
2023/02/10 00:19:05;;;;;;;56.95;27.02;;;3.80;99.90;;;-144.05;66.57;56986.91;5012804;28;20473;-77
2023/02/10 00:21:31;;;;;;;57.17;28.80;;;3.90;99.90;;;-144.05;66.46;57025.13;5013709;28;20021;-79
2023/02/10 00:23:57;;;;;;;53.30;27.58;;;3.90;99.90;;;-144.05;65.92;56989.00;4995792;28;20026;-79
2023/02/10 00:26:23;;;;;;;59.67;29.40;;;3.90;99.90;;;-144.05;66.12;56999.63;5013522;28;20021;-78
2023/02/10 00:28:48;;;;;;;52.80;28.58;;;3.90;99.90;;;-144.05;65.82;57040.00;5013088;28;20157;-78
2023/02/10 00:31:18;;;;;;;56.03;27.92;;;3.90;99.90;;;-144.05;66.09;56989.00;5013244;28;20493;-78
2023/02/10 00:33:45;;;;;;;53.40;26.48;;;3.90;99.90;;;-144.05;66.27;56986.91;5011388;28;20041;-77
2023/02/10 00:36:14;;;;;;;52.33;27.90;;;3.90;99.90;;;-144.05;66.30;56969.91;5013289;28;20030;-80
2023/02/10 00:38:42;;;;;;;55.25;28.15;;;3.90;99.90;;;-144.05;65.85;56989.00;5012485;28;20116;-77
2023/02/10 00:41:16;;;;;;;54.90;29.30;;;3.90;99.90;;;-144.05;66.39;56997.50;5012755;28;20512;-79
2023/02/10 00:43:44;;;;;;;58.40;30.52;;;3.80;99.90;;;-144.05;66.63;56982.66;5015242;28;20444;-78
2023/02/10 00:46:18;;;;;;;59.15;29.88;;;3.80;99.90;;;-144.05;66.47;56993.25;5012927;28;20454;-77
2023/02/10 00:48:45;;;;;;;57.55;28.30;;;3.80;99.90;;;-144.05;66.82;56986.91;5013138;28;20026;-79
2023/02/10 00:51:13;;;;;;;59.15;29.55;;;3.80;99.90;;;-144.05;66.48;56986.91;5013391;28;20026;-76
2023/02/10 00:53:39;;;;;;;54.83;29.15;;;3.80;99.90;;;-144.05;66.58;56984.78;4995267;28;20478;-76
2023/02/10 00:56:06;;;;;;;55.75;30.13;;;3.80;99.90;;;-144.05;66.73;56982.66;5013143;28;20036;-79
2023/02/10 00:58:32;;;;;;;54.53;28.52;;;3.80;99.90;;;-144.05;66.60;57008.13;5012139;28;20030;-78
2023/02/10 01:00:58;;;;;;;52.58;28.42;;;3.80;99.90;;;-144.05;67.08;56989.00;4995077;28;20117;-78
2023/02/10 01:03:25;;;;;;;62.70;29.90;;;3.80;99.90;;;-144.05;66.83;56986.91;5012407;28;20476;-77
2023/02/10 01:05:51;;;;;;;62.47;29.88;;;3.80;99.90;;;-144.05;66.91;57001.75;5010924;28;20036;-77
2023/02/10 01:08:18;;;;;;;63.75;30.50;;;3.80;99.90;;;-144.05;66.90;56972.03;4994117;28;20127;-78
2023/02/10 01:10:44;;;;;;;61.13;29.35;;;3.80;99.90;;;-144.05;67.69;57023.00;5014608;28;20034;-78
2023/02/10 01:13:13;;;;;;;58.08;31.23;;;3.80;99.90;;;-144.05;67.56;57003.88;5014821;28;20037;-77
2023/02/10 01:15:46;;;;;;;55.72;28.75;;;3.70;99.90;;;-144.05;67.80;57012.38;5016147;28;20102;-78
2023/02/10 01:18:13;;;;;;;64.00;30.38;;;3.70;99.90;;;-144.05;67.48;56986.91;5015640;28;20030;-76
2023/02/10 01:20:42;;;;;;;56.97;29.65;;;3.70;99.90;;;-144.05;67.90;57006.00;5015924;28;20041;-77
2023/02/10 01:23:10;;;;;;;56.15;30.90;;;3.70;99.90;;;-144.05;68.24;57014.50;4998133;28;20029;-78
2023/02/10 01:25:37;;;;;;;62.42;30.92;;;3.70;99.90;;;-144.05;68.30;56991.13;5015489;28;20049;-77
2023/02/10 01:28:06;;;;;;;63.22;30.25;;;3.70;99.90;;;-144.05;68.23;57006.00;5015411;28;20493;-78
2023/02/10 01:30:33;;;;;;;61.30;30.52;;;3.70;99.90;;;-144.05;68.38;57006.00;5015458;28;20037;-77
2023/02/10 01:32:59;;;;;;;58.53;29.73;;;3.70;99.90;;;-144.05;68.45;56984.78;5015720;28;20069;-76
2023/02/10 01:35:25;;;;;;;65.13;31.92;;;3.70;99.90;;;-144.05;68.99;57006.00;4997906;28;20081;-77
2023/02/10 01:37:51;;;;;;;54.17;29.33;;;3.60;99.90;;;-144.05;68.74;56991.13;5014124;28;20034;-79
2023/02/10 01:40:17;;;;;;;64.28;31.88;;;3.60;99.90;;;-144.05;69.54;57023.00;5016078;28;20033;-79
2023/02/10 01:42:45;;;;;;;63.28;31.00;;;3.50;99.90;;;-144.05;69.68;56986.91;5015921;28;20050;-78
2023/02/10 01:45:38;;;;;;;62.55;31.38;;;3.50;99.90;;;-144.05;70.03;56984.78;4998129;28;20025;-78
2023/02/10 01:48:08;;;;;;;64.85;31.15;;;3.40;99.90;;;-144.05;70.22;56991.13;5015475;28;20583;-78
2023/02/10 01:50:51;;;;;;;66.57;33.03;;;3.40;99.90;;;-144.05;70.59;56991.13;5015504;28;20025;-78
2023/02/10 01:53:20;;;;;;;61.30;32.00;;;3.40;99.90;;;-144.05;70.05;56972.03;5015556;28;20469;-78
2023/02/10 01:55:54;;;;;;;64.05;32.00;;;3.30;99.90;;;-144.05;70.62;56980.53;5015945;28;20025;-81
2023/02/10 01:58:28;;;;;;;68.78;32.55;;;3.30;99.90;;;-144.05;70.86;56982.66;4997181;28;20060;-78
2023/02/10 02:00:54;;;;;;;70.88;33.45;;;3.20;99.90;;;-144.05;71.18;57001.75;5014976;28;20470;-78
2023/02/10 02:03:19;;;;;;;62.60;31.50;;;3.20;99.90;;;-144.05;71.43;57012.38;5015789;28;20088;-78
2023/02/10 02:05:46;;;;;;;66.20;33.17;;;3.20;99.90;;;-144.05;72.06;56991.13;5015234;28;20041;-78
2023/02/10 02:08:25;;;;;;;70.15;34.33;;;3.20;99.90;;;-144.05;72.46;57001.75;5014712;28;20088;-78
2023/02/10 02:11:21;;;;;;;71.30;33.30;;;3.20;99.90;;;-144.05;72.26;57016.63;5015335;28;20037;-78
2023/02/10 02:14:08;;;;;;;71.18;34.20;;;3.30;99.90;;;-144.05;72.12;56986.91;5015320;28;20489;-75
2023/02/10 02:16:51;;;;;;;64.45;32.33;;;3.30;99.90;;;-144.05;72.05;57014.50;5015019;28;20034;-78
2023/02/10 02:23:57;;;;;;;68.05;32.72;;;3.40;99.90;;;-144.05;72.02;57016.63;5014067;28;20048;-78
2023/02/10 02:26:50;;;;;;;70.07;31.35;;;3.50;99.90;;;-144.05;71.84;56993.25;5015684;28;20030;-78
2023/02/10 02:29:59;;;;;;;63.83;31.40;;;3.50;99.90;;;-144.05;72.11;56982.66;4997019;28;20121;-77
2023/02/10 02:33:05;;;;;;;68.25;33.72;;;3.50;99.90;;;-144.05;72.04;56984.78;5015310;28;20036;-79
2023/02/10 02:35:51;;;;;;;67.47;32.40;;;3.50;99.90;;;-144.05;72.61;56978.41;5015288;28;20053;-79
2023/02/10 02:38:18;;;;;;;69.70;33.67;;;3.50;99.90;;;-144.05;72.38;56984.78;5014684;28;20037;-78
2023/02/10 02:40:43;;;;;;;66.03;32.65;;;3.50;99.90;;;-144.05;72.44;57008.13;4997801;28;20109;-78
2023/02/10 02:43:10;;;;;;;76.25;34.78;;;3.50;99.90;;;-144.05;72.93;57008.13;5016771;28;20029;-79
2023/02/10 02:45:59;;;;;;;67.53;34.15;;;3.50;99.90;;;-144.05;72.75;57001.75;5016870;28;20510;-79
2023/02/10 02:48:44;;;;;;;67.57;33.80;;;3.50;99.90;;;-144.05;73.14;56999.63;5034234;28;20029;-78
2023/02/10 02:51:41;;;;;;;76.15;34.65;;;3.50;99.90;;;-144.05;72.86;57012.38;5034807;28;20035;-80
2023/02/10 02:54:14;;;;;;;;;;;3.40;99.90;;;-144.05;73.02;56999.63;5029211;28;20045;-77
2023/02/10 02:57:02;;;;;;;69.40;33.92;;;3.40;99.90;;;-144.05;73.65;56993.25;5035020;28;19909;-78
2023/02/10 03:00:07;;;;;;;72.93;34.55;;;3.30;99.90;;;-144.05;74.40;57001.75;5034220;28;20033;-77
2023/02/10 03:02:41;;;;;;;68.30;35.47;;;3.30;99.90;;;-144.05;74.14;56986.91;5034710;28;20022;-78
2023/02/10 03:05:09;;;;;;;74.72;37.45;;;3.20;99.90;;;-144.05;74.71;57014.50;5016461;28;20100;-80
2023/02/10 03:07:35;;;;;;;73.18;34.28;;;3.20;99.90;;;-144.05;75.21;57003.88;5033818;28;20029;-78
2023/02/10 03:10:03;;;;;;;79.95;37.00;;;3.20;99.90;;;-144.05;74.94;56997.50;5033903;28;20488;-79
2023/02/10 03:12:29;;;;;;;71.95;36.63;;;3.20;99.90;;;-144.05;74.75;57001.75;5035166;28;20036;-79
2023/02/10 03:14:55;;;;;;;76.95;36.72;;;3.20;99.90;;;-144.05;75.48;56982.66;5034456;28;20033;-78
2023/02/10 03:17:21;;;;;;;76.10;35.42;;;3.20;99.90;;;-144.05;75.64;56984.78;5034602;28;20033;-79
2023/02/10 03:19:46;;;;;;;80.63;37.53;;;3.20;99.90;;;-144.05;76.12;56997.50;5034881;28;20026;-80
2023/02/10 03:22:12;;;;;;;77.55;37.00;;;3.20;99.90;;;-144.05;75.48;57003.88;5016845;28;20453;-79
2023/02/10 03:24:38;;;;;;;78.68;37.08;;;3.20;99.90;;;-144.05;75.38;56982.66;5034768;28;20136;-79
2023/02/10 03:27:05;;;;;;;72.53;35.85;;;3.10;99.90;;;-144.05;75.20;57001.75;5034905;28;20022;-79
2023/02/10 03:29:31;;;;;;;79.10;35.75;;;3.00;99.90;;;-144.05;75.90;56995.38;5035236;28;20032;-79
2023/02/10 03:32:01;;;;;;;70.68;35.72;;;2.90;99.90;;;-144.05;76.16;56993.25;5034843;28;20057;-77
2023/02/10 03:34:28;;;;;;;76.60;38.30;;;2.80;99.90;;;-144.05;76.71;56999.63;5034637;28;20036;-78
2023/02/10 03:36:54;;;;;;;78.85;37.20;;;2.80;99.90;;;-144.05;76.88;57020.88;5034336;28;20049;-76
2023/02/10 03:39:20;;;;;;;81.72;38.05;;;2.70;99.90;;;-144.05;77.23;56999.63;5015378;28;20037;-77
2023/02/10 03:41:45;;;;;;;83.88;38.33;;;2.60;99.90;;;-144.05;77.52;56989.00;5033433;28;20032;-79
2023/02/10 03:44:11;;;;;;;74.90;35.45;;;2.60;99.90;;;-144.05;77.17;56999.63;5034687;28;20385;-78
2023/02/10 03:46:37;;;;;;;81.30;38.40;;;2.60;99.90;;;-144.05;76.80;57012.38;5016555;28;20687;-78
2023/02/10 03:49:06;;;;;;;80.88;38.22;;;2.50;99.90;;;-144.05;77.23;56984.78;5034414;28;20112;-79
2023/02/10 03:51:32;;;;;;;75.90;37.42;;;2.40;99.90;;;-144.05;77.18;56978.41;5034167;28;20034;-77
2023/02/10 03:53:58;;;;;;;81.55;38.17;;;2.40;99.90;;;-144.05;77.34;57010.25;5034373;28;20505;-78
2023/02/10 03:56:24;;;;;;;75.28;38.50;;;2.40;99.90;;;-144.05;77.09;57016.63;5038635;28;20025;-78
2023/02/10 03:58:50;;;;;;;80.80;39.25;;;2.40;99.90;;;-144.05;77.68;57014.50;5044414;28;20556;-77
2023/02/10 04:01:17;;;;;;;81.50;38.60;;;2.40;99.90;;;-144.05;77.55;57006.00;5045879;28;20036;-77
2023/02/10 04:03:45;;;;;;;83.93;38.60;;;2.40;99.90;;;-144.05;77.56;57003.88;5044993;28;20031;-77
2023/02/10 04:06:11;;;;;;;88.43;39.58;;;2.30;99.90;;;-144.05;77.48;57003.88;5046041;28;20564;-77
2023/02/10 04:08:38;;;;;;;86.32;40.38;;;2.30;99.90;;;-144.05;77.86;57018.75;5045533;28;20041;-78
2023/02/10 04:11:07;;;;;;;83.85;39.55;;;2.30;99.90;;;-144.05;77.76;57010.25;5016434;28;20033;-79
2023/02/10 04:13:33;;;;;;;80.55;39.03;;;2.30;99.90;;;-144.05;78.10;56976.28;5033924;28;20112;-78
2023/02/10 04:16:13;;;;;;;86.47;39.83;;;2.20;99.90;;;-144.05;77.80;57020.88;5033641;28;20044;-78
2023/02/10 04:18:41;;;;;;;79.18;38.15;;;2.10;99.90;;;-144.05;78.14;57020.88;5033206;28;20504;-78
2023/02/10 04:21:12;;;;;;;81.35;39.25;;;2.10;99.90;;;-144.05;78.96;57014.50;5033914;28;20029;-77
2023/02/10 04:23:38;;;;;;;86.47;41.88;;;2.00;99.90;;;-144.05;79.05;56989.00;5033882;28;20056;-77
2023/02/10 04:26:05;;;;;;;81.68;39.15;;;2.10;99.90;;;-144.05;79.54;57008.13;5032690;28;20021;-77
2023/02/10 04:28:30;;;;;;;88.28;41.13;;;2.10;99.90;;;-144.05;79.12;57010.25;5033075;28;20392;-78
2023/02/10 04:31:01;;;;;;;86.82;41.00;;;2.10;99.90;;;-144.05;78.98;56997.50;5033403;28;20052;-79
2023/02/10 04:33:28;;;;;;;79.70;41.53;;;2.00;99.90;;;-144.05;79.05;57042.13;5015302;28;20516;-78
2023/02/10 04:35:55;;;;;;;89.68;40.78;;;2.00;99.90;;;-144.05;79.28;57008.13;5032843;28;20108;-77
2023/02/10 04:38:22;;;;;;;82.93;40.33;;;2.00;99.90;;;-144.05;79.24;56997.50;5031744;28;20113;-78
2023/02/10 04:40:48;;;;;;;84.65;40.53;;;1.90;99.90;;;-144.05;79.40;57016.63;5032477;28;20101;-77
2023/02/10 04:43:14;;;;;;;80.60;40.90;;;1.90;99.90;;;-144.05;79.70;57010.25;5032961;28;20037;-78
2023/02/10 04:45:40;;;;;;;95.03;43.35;;;1.80;99.90;;;-144.05;80.26;57016.63;5034748;28;20388;-78
2023/02/10 04:48:07;;;;;;;90.32;39.92;;;1.80;99.90;;;-144.05;80.20;57012.38;5035712;28;20045;-77
2023/02/10 04:50:35;;;;;;;87.80;41.92;;;1.80;99.90;;;-144.05;79.86;57001.75;5036251;28;20041;-78
2023/02/10 04:53:01;;;;;;;92.22;43.40;;;1.80;99.90;;;-144.05;80.46;57014.50;5035703;28;20127;-76
2023/02/10 04:55:27;;;;;;;82.30;40.03;;;1.80;99.90;;;-144.05;80.02;57027.25;5036144;28;20033;-77
2023/02/10 04:57:52;;;;;;;87.80;40.10;;;1.80;99.90;;;-144.05;79.65;57016.63;5036445;28;20128;-76
2023/02/10 05:00:19;;;;;;;86.93;40.05;;;1.80;99.90;;;-144.05;80.12;57040.00;5036498;28;20494;-78
2023/02/10 05:02:45;;;;;;;88.30;40.60;;;1.70;99.90;;;-144.05;80.28;57018.75;5036365;28;20128;-78
2023/02/10 05:05:13;;;;;;;100.95;42.33;;;1.70;99.90;;;-144.05;80.44;57016.63;5035725;28;20026;-76
2023/02/10 05:07:39;;;;;;;94.18;40.88;;;1.70;99.90;;;-144.05;80.17;57033.63;5036282;28;20502;-77
2023/02/10 05:10:05;;;;;;;83.43;41.13;;;1.70;99.90;;;-144.05;79.94;57001.75;5035824;28;20171;-78
2023/02/10 05:12:31;;;;;;;85.93;40.80;;;1.70;99.90;;;-144.05;80.19;57031.50;5038697;28;20104;-77
2023/02/10 05:14:57;;;;;;;88.68;42.97;;;1.70;99.90;;;-144.05;80.22;57010.25;5036879;28;20688;-76
2023/02/10 05:17:23;;;;;;;86.72;41.78;;;1.60;99.90;;;-144.05;80.32;56993.25;5036157;28;20026;-78
2023/02/10 05:19:49;;;;;;;91.00;42.67;;;1.60;99.90;;;-144.05;80.60;57031.50;5036767;28;20441;-77
2023/02/10 05:22:14;;;;;;;89.22;41.70;;;1.60;99.90;;;-144.05;80.75;57025.13;5037563;28;20022;-77
2023/02/10 05:24:41;;;;;;;90.40;42.15;;;1.60;99.90;;;-144.05;80.74;57003.88;5023900;28;20029;-77
2023/02/10 05:27:07;;;;;;;98.82;42.42;;;1.60;99.90;;;-144.05;81.06;57027.25;5036571;28;20028;-77
2023/02/10 05:29:33;;;;;;;95.60;43.25;;;1.50;99.90;;;-144.05;80.92;56993.25;5035848;28;20048;-79
2023/02/10 05:31:59;;;;;;;93.07;41.72;;;1.50;99.90;;;-144.05;80.84;57035.75;5036660;28;20041;-76
2023/02/10 05:34:26;;;;;;;86.18;41.70;;;1.50;99.90;;;-144.05;80.96;57016.63;5036998;28;20029;-77
2023/02/10 05:36:53;;;;;;;92.85;44.03;;;1.50;99.90;;;-144.05;81.39;57020.88;5035630;28;20049;-81
2023/02/10 05:39:24;;;;;;;97.50;42.05;;;1.50;99.90;;;-144.05;80.92;57035.75;5036942;28;20038;-79
2023/02/10 05:41:57;;;;;;;87.68;41.75;;;1.50;99.90;;;-144.05;80.48;57020.88;5034857;28;20465;-86
2023/02/10 05:44:28;;;;;;;93.85;41.90;;;1.50;99.90;;;-144.05;80.45;57010.25;5035474;28;20065;-77
2023/02/10 05:46:53;;;;;;;93.43;41.20;;;1.50;99.90;;;-144.05;80.41;57029.38;5035897;28;20029;-81
2023/02/10 05:49:20;;;;;;;86.15;39.88;;;1.40;99.90;;;-144.05;80.80;57016.63;5019980;28;20065;-80
2023/02/10 05:51:46;;;;;;;86.95;41.72;;;1.40;99.90;;;-144.05;80.72;57025.13;5036215;28;20112;-79
2023/02/10 05:54:13;;;;;;;93.00;42.35;;;1.40;99.90;;;-144.05;81.39;57008.13;5033610;28;20064;-78
2023/02/10 05:56:40;;;;;;;96.32;41.28;;;1.40;99.90;;;-144.05;80.69;57010.25;5017420;28;20186;-77
2023/02/10 05:59:08;;;;;;;93.32;42.80;;;1.40;99.90;;;-144.05;80.64;57008.13;5037074;28;20101;-79
2023/02/10 06:01:34;;;;;;;87.50;40.22;;;1.40;99.90;;;-144.05;80.68;57027.25;5035984;28;20188;-77
2023/02/10 06:04:00;;;;;;;91.47;41.25;;;1.40;99.90;;;-144.05;80.74;57020.88;5037156;28;20128;-80
2023/02/10 06:06:26;;;;;;;87.38;42.03;;;1.40;99.90;;;-144.05;80.84;57025.13;5037597;28;20055;-79
2023/02/10 06:08:51;;;;;;;93.20;44.03;;;1.40;99.90;;;-144.05;81.10;57031.50;5035466;28;20112;-78
2023/02/10 06:11:17;;;;;;;96.47;44.75;;;1.40;99.90;;;-144.05;81.64;57018.75;5035315;28;20040;-79
2023/02/10 06:13:43;;;;;;;91.57;44.47;;;1.40;99.90;;;-144.05;81.10;57012.38;5035595;28;20037;-79
2023/02/10 06:16:11;;;;;;;86.82;41.47;;;1.50;99.90;;;-144.05;80.97;57029.38;5017257;28;20051;-80
2023/02/10 06:18:37;;;;;;;93.32;41.60;;;1.50;99.90;;;-144.05;81.34;57006.00;5033546;28;20460;-81
2023/02/10 06:21:03;;;;;;;96.75;42.95;;;1.60;99.90;;;-144.05;81.22;57033.63;5034520;28;20518;-81
2023/02/10 06:23:28;;;;;;;94.38;43.20;;;1.60;99.90;;;-144.05;81.14;57016.63;5036796;28;20389;-78
2023/02/10 06:25:54;;;;;;;98.00;43.03;;;1.60;99.90;;;-144.05;81.45;56989.00;5035371;28;20025;-80
2023/02/10 06:28:26;;;;;;;83.47;39.92;;;1.70;99.90;;;-144.05;81.27;56995.38;5035580;28;20036;-80
2023/02/10 06:30:54;;;;;;;91.22;41.38;;;1.70;99.90;;;-144.05;80.92;57027.25;5038007;28;20459;-80
2023/02/10 06:33:20;;;;;;;95.97;43.97;;;1.70;99.90;;;-144.05;80.78;56997.50;5037634;28;20514;-77
2023/02/10 06:35:47;;;;;;;95.07;42.65;;;1.70;99.90;;;-144.05;81.19;57029.38;5035131;28;20031;-78
2023/02/10 06:38:13;;;;;;;93.30;43.03;;;1.80;99.90;;;-144.05;81.76;57014.50;5033176;28;20111;-79
2023/02/10 06:40:39;;;;;;;96.53;41.13;;;1.90;99.90;;;-144.05;81.10;57010.25;5016856;28;20033;-80
2023/02/10 06:43:05;;;;;;;96.90;42.05;;;1.90;99.90;;;-144.05;81.10;56997.50;5036121;28;20034;-79
2023/02/10 06:45:32;;;;;;;87.18;40.08;;;1.90;99.90;;;-144.05;80.87;56978.41;5034877;28;20079;-79
2023/02/10 06:47:58;;;;;;;94.10;42.10;;;1.90;99.90;;;-144.05;80.56;57006.00;5035852;28;20029;-77
2023/02/10 06:50:24;;;;;;;96.93;41.50;;;1.90;99.90;;;-144.05;80.74;57010.25;5038942;28;20047;-79
2023/02/10 06:52:50;;;;;;;97.50;41.85;;;1.90;99.90;;;-144.05;80.26;57035.75;5037567;28;21108;-79
2023/02/10 06:55:16;;;;;;;94.95;43.35;;;2.00;99.90;;;-144.05;80.66;56982.66;5038887;28;20057;-80
2023/02/10 06:57:42;;;;;;;93.53;41.47;;;2.00;99.90;;;-144.05;80.21;56999.63;5037839;28;20029;-77
2023/02/10 07:00:13;;;;;;;100.18;41.53;;;2.00;99.90;;;-144.05;80.27;57018.75;5039648;28;20024;-80
2023/02/10 07:02:40;;;;;;;81.40;38.65;;;2.10;99.90;;;-144.05;80.11;57001.75;5039046;28;20036;-79
2023/02/10 07:05:10;;;;;;;90.07;40.80;;;2.10;99.90;;;-144.05;80.29;57018.75;5036345;28;20507;-79
2023/02/10 07:07:38;;;;;;;88.88;39.60;;;2.00;99.90;;;-144.05;80.55;57044.25;5034926;28;20017;-78
2023/02/10 07:10:05;;;;;;;92.13;39.95;;;2.10;99.90;;;-144.05;79.83;57018.75;5033949;28;20036;-79
2023/02/10 07:12:31;;;;;;;82.45;39.72;;;2.00;99.90;;;-144.05;80.01;57012.38;5025021;28;20029;-79
2023/02/10 07:14:56;;;;;;;83.25;39.38;;;2.00;99.90;;;-144.05;79.81;57033.63;5036044;28;20044;-80
2023/02/10 07:17:22;;;;;;;93.28;40.33;;;2.00;99.90;;;-144.05;80.77;57020.88;5035439;28;20079;-80
2023/02/10 07:19:48;;;;;;;96.43;42.67;;;2.00;99.90;;;-144.05;80.31;57012.38;5016953;28;20025;-80
2023/02/10 07:22:14;;;;;;;86.07;39.72;;;2.00;99.90;;;-144.05;79.97;57014.50;5035149;28;20363;-79
2023/02/10 07:24:40;;;;;;;87.03;40.60;;;1.90;99.90;;;-144.05;79.56;57040.00;5034460;28;20037;-80
2023/02/10 07:27:06;;;;;;;86.22;39.42;;;1.90;99.90;;;-144.05;79.43;57012.38;5016795;28;20533;-78
2023/02/10 07:29:32;;;;;;;87.30;40.03;;;1.90;99.90;;;-144.05;79.43;57014.50;5034217;28;20500;-78
2023/02/10 07:31:58;;;;;;;91.50;40.53;;;1.90;99.90;;;-144.05;79.52;57029.38;5033123;28;20033;-81
2023/02/10 07:34:25;;;;;;;90.03;38.80;;;1.90;99.90;;;-144.05;79.72;57023.00;5016673;28;20033;-79
2023/02/10 07:36:56;;;;;;;91.13;39.58;;;1.90;99.90;;;-144.05;79.33;57020.88;5034216;28;20034;-81
2023/02/10 07:39:23;;;;;;;88.43;41.40;;;1.90;99.90;;;-144.05;79.17;57010.25;5034732;28;20477;-81
2023/02/10 07:41:50;;;;;;;91.03;38.90;;;1.90;99.90;;;-144.05;79.32;56993.25;5033701;28;20037;-81
2023/02/10 07:44:16;;;;;;;86.60;38.92;;;1.90;99.90;;;-144.05;79.22;57001.75;5035524;28;20033;-80
2023/02/10 07:46:43;;;;;;;88.70;40.63;;;1.90;99.90;;;-144.05;78.88;57042.13;5016992;28;20116;-81
2023/02/10 07:49:09;;;;;;;88.25;39.90;;;1.90;99.90;;;-144.05;78.82;57006.00;5034303;28;20029;-80
2023/02/10 07:51:35;;;;;;;82.40;36.78;;;1.90;99.90;;;-144.05;78.58;56993.25;5034465;28;20523;-81
2023/02/10 07:54:01;;;;;;;83.13;38.53;;;2.00;99.90;;;-144.05;78.37;56991.13;5036688;28;20029;-79
2023/02/10 07:56:27;;;;;;;83.45;37.38;;;2.00;99.90;;;-144.05;79.21;56999.63;5038888;28;20047;-79
2023/02/10 07:58:53;;;;;;;83.53;38.38;;;2.10;99.90;;;-144.05;78.43;56982.66;5036307;28;20037;-79
2023/02/10 08:01:19;;;;;;;84.95;38.47;;;2.30;99.90;;;-144.05;77.61;56997.50;5018001;28;20080;-79
2023/02/10 08:03:45;;;;;;;80.95;36.90;;;2.50;99.90;;;-144.05;77.07;56978.41;5036040;28;20400;-79
2023/02/10 08:06:11;;;;;;;74.57;36.10;;;2.60;99.90;;;-144.05;76.50;57012.38;5034697;28;20034;-79
2023/02/10 08:08:36;;;;;;;83.63;37.53;;;2.80;99.90;;;-144.05;75.91;56995.38;5044573;28;20041;-79
2023/02/10 08:11:06;;;;;;;82.93;35.65;;;3.00;99.90;;;-144.05;75.50;56989.00;5035942;28;20491;-80
2023/02/10 08:13:33;;;;;;;76.97;34.90;;;3.10;99.90;;;-144.05;74.73;56997.50;5017052;28;20458;-80
2023/02/10 08:15:59;;;;;;;71.25;34.38;;;3.30;99.90;;;-144.05;73.99;57016.63;5016859;28;20603;-79
2023/02/10 08:18:25;;;;;;;78.05;36.10;;;3.40;99.90;;;-144.05;73.89;56984.78;5033493;28;20068;-81
2023/02/10 08:20:51;;;;;;;72.40;34.10;;;3.50;99.90;;;-144.05;73.48;56969.91;5018681;28;20040;-79
2023/02/10 08:23:18;;;;;;;68.95;34.00;;;3.50;99.90;;;-144.05;73.40;56995.38;5021188;28;20053;-79
2023/02/10 08:25:44;;;;;;;72.38;33.88;;;3.50;99.90;;;-144.05;72.58;56995.38;5036893;28;20026;-81
2023/02/10 08:28:10;;;;;;;71.35;32.72;;;3.60;99.90;;;-144.05;72.81;56995.38;5037516;28;20095;-80
2023/02/10 08:30:36;;;;;;;70.95;32.25;;;3.70;99.90;;;-144.05;72.34;56972.03;5038052;28;20044;-80
2023/02/10 08:33:03;;;;;;;66.47;32.67;;;3.80;99.90;;;-144.05;71.24;56961.41;5038078;28;20033;-79
2023/02/10 08:35:29;;;;;;;64.60;31.80;;;3.90;99.90;;;-144.05;70.96;56978.41;5037976;28;20068;-82
2023/02/10 08:37:55;;;;;;;67.95;33.00;;;3.90;99.90;;;-144.05;71.05;56972.03;5037466;28;20485;-81
2023/02/10 08:40:20;;;;;;;67.38;32.20;;;3.90;99.90;;;-144.05;71.45;56989.00;5036945;28;20032;-79
2023/02/10 08:42:46;;;;;;;74.70;35.10;;;3.80;99.90;;;-144.05;71.78;56995.38;5020131;28;20037;-80
2023/02/10 08:45:12;;;;;;;69.15;36.00;;;3.80;99.90;;;-144.05;72.09;56989.00;5037624;28;20033;-80
2023/02/10 08:47:38;;;;;;;71.55;33.97;;;3.80;99.90;;;-144.05;72.76;57003.88;5019425;28;20048;-79
2023/02/10 08:50:05;;;;;;;72.72;34.60;;;3.90;99.90;;;-144.05;72.13;56950.78;5037674;28;20048;-81
2023/02/10 08:52:31;;;;;;;68.13;34.00;;;4.10;99.90;;;-144.05;72.07;57001.75;5036169;28;20036;-81
2023/02/10 08:54:56;;;;;;;59.60;32.25;;;4.20;99.90;;;-144.05;71.37;56995.38;5019558;28;20026;-79
2023/02/10 08:57:22;;;;;;;71.55;34.60;;;4.30;99.90;;;-144.05;71.75;56982.66;5040014;28;20041;-79
2023/02/10 08:59:48;;;;;;;72.53;36.53;;;4.40;99.90;;;-144.05;70.91;56982.66;5038426;28;20089;-79
2023/02/10 09:02:14;;;;;;;68.53;33.25;;;4.50;99.90;;;-144.05;69.80;56991.13;5037509;28;20030;-80
2023/02/10 09:04:41;;;;;;;64.30;32.63;;;4.70;99.90;;;-144.05;69.15;56993.25;5037502;28;20033;-81
2023/02/10 09:07:10;;;;;;;60.63;31.15;;;4.90;99.90;;;-144.05;69.41;56980.53;5037540;28;20421;-80
2023/02/10 09:09:42;;;;;;;68.22;34.47;;;4.90;99.90;;;-144.05;69.62;56969.91;5037786;28;20025;-80
2023/02/10 09:12:11;;;;;;;68.80;32.22;;;4.90;99.90;;;-144.05;69.29;56974.16;5036516;28;20117;-79
2023/02/10 09:14:39;;;;;;;67.88;32.83;;;5.00;99.90;;;-144.05;68.62;56976.28;5037781;28;20109;-80
2023/02/10 09:17:07;;;;;;;74.38;32.25;;;4.90;99.90;;;-144.05;69.24;56946.53;5037638;28;20103;-80
2023/02/10 09:19:35;;;;;;;71.18;34.45;;;5.00;99.90;;;-144.05;69.14;56963.53;5037586;28;20030;-80
2023/02/10 09:22:04;;;;;;;68.78;32.67;;;5.30;99.90;;;-144.05;68.25;56969.91;5020341;28;20108;-80
2023/02/10 09:24:31;;;;;;;68.80;33.85;;;5.20;99.90;;;-144.05;68.59;56976.28;5036683;28;20033;-80
2023/02/10 09:26:57;;;;;;;70.03;34.53;;;5.20;99.90;;;-144.05;68.50;56974.16;5038926;28;20357;-79
2023/02/10 09:29:24;;;;;;;75.25;34.13;;;5.10;99.90;;;-144.05;67.81;56974.16;5040933;28;20049;-80
2023/02/10 09:31:50;;;;;;;71.90;32.70;;;5.20;99.90;;;-144.05;68.55;56963.53;5039367;28;20041;-79
2023/02/10 09:34:16;;;;;;;69.35;33.42;;;5.20;99.90;;;-144.05;68.57;56972.03;5038827;28;20036;-78
2023/02/10 09:36:42;;;;;;;65.35;31.33;;;5.20;99.90;;;-144.05;68.62;56959.28;5039052;28;20461;-80
2023/02/10 09:39:08;;;;;;;69.43;32.65;;;5.20;99.90;;;-144.05;68.35;56980.53;5038947;28;20040;-80
2023/02/10 09:41:34;;;;;;;67.18;31.20;;;5.30;99.90;;;-144.05;67.98;56980.53;5038427;28;20033;-80
2023/02/10 09:44:15;;;;;;;65.70;32.25;;;5.30;99.90;;;-144.05;67.58;56967.78;5040075;28;20374;-80
2023/02/10 09:46:51;;;;;;;73.40;31.98;;;5.30;99.90;;;-144.05;67.96;56965.66;5038142;28;20049;-80
2023/02/10 09:50:00;;;;;;;67.72;32.45;;;5.20;99.90;;;-144.05;67.90;56974.16;5024537;28;20029;-79
2023/02/10 09:53:13;;;;;;;71.03;32.28;;;5.30;99.90;;;-144.05;67.64;56972.03;5038039;28;20033;-80
2023/02/10 09:55:57;;;;;;;67.28;31.50;;;5.40;99.90;;;-144.05;68.28;56952.91;5021446;28;20056;-80
2023/02/10 09:58:48;;;;;;;66.68;31.73;;;5.30;99.90;;;-144.05;68.16;56967.78;5039288;28;20033;-81
2023/02/10 10:01:36;;;;;;;71.15;33.45;;;5.20;99.90;;;-144.05;70.11;56961.41;5039057;28;20021;-79
2023/02/10 10:04:15;;;;;;;75.47;33.47;;;4.90;99.90;;;-144.05;70.81;56993.25;5019936;28;20025;-79
2023/02/10 10:06:51;;;;;;;72.38;34.58;;;4.90;99.90;;;-144.05;70.53;57010.25;5036525;28;20029;-81
2023/02/10 10:09:58;;;;;;;75.10;33.45;;;4.80;99.90;;;-144.05;70.37;56986.91;5036087;28;20075;-81
2023/02/10 10:12:24;;;;;;;80.00;33.08;;;4.80;99.90;;;-144.05;70.08;56976.28;5035822;28;20032;-79
2023/02/10 10:14:53;;;;;;;69.03;31.83;;;4.80;99.90;;;-144.05;70.10;56991.13;5017855;28;20033;-80